Time;durP1;ratioP1;P1;durP2;ratioP2;P2;SDS_P1;SDS_P2;PMS_P1;PMS_P2;Temp;Humidity;BMP_temperature;BMP_pressure;BME280_temperature;BME280_humidity;BME280_pressure;Samples;Min_cycle;Max_cycle;Signal;HPM_P1;HPM_P2
2021/12/09 00:02:21;;;;;;;;;;;2.90;99.90;;;;;;5053653;28;19924;-74
2021/12/09 00:04:47;;;;;;;;;;;2.80;99.90;;;;;;5060146;28;19924;-73
2021/12/09 00:07:14;;;;;;;;;;;2.80;99.90;;;;;;5055392;28;20011;-74
2021/12/09 00:09:41;;;;;;;;;;;2.80;99.90;;;;;;5061925;28;19925;-74
2021/12/09 00:12:09;;;;;;;;;;;2.80;99.90;;;;;;5048597;28;19937;-73
2021/12/09 00:14:36;;;;;;;;;;;2.70;99.90;;;;;;5049405;28;19931;-74
2021/12/09 00:17:05;;;;;;;;;;;2.70;99.90;;;;;;5051867;28;19931;-74
2021/12/09 00:19:32;;;;;;;;;;;2.70;99.90;;;;;;5055380;28;19925;-74
2021/12/09 00:21:59;;;;;;;;;;;2.70;99.90;;;;;;5054209;28;20373;-74
2021/12/09 00:24:26;;;;;;;;;;;2.70;99.90;;;;;;5065631;28;20015;-74
2021/12/09 00:26:53;;;;;;;;;;;2.70;99.90;;;;;;5049224;28;19925;-74
2021/12/09 00:29:21;;;;;;;;;;;2.70;99.90;;;;;;5050111;28;19931;-74
2021/12/09 00:31:48;;;;;;;;;;;2.70;99.90;;;;;;5050904;28;19925;-74
2021/12/09 00:34:15;;;;;;;;;;;2.70;99.90;;;;;;5048176;28;19972;-74
2021/12/09 00:36:54;;;;;;;;;;;2.70;99.90;;;;;;5050597;28;20027;-74
2021/12/09 00:39:21;;;;;;;;;;;2.70;99.90;;;;;;5049673;28;19925;-74
2021/12/09 00:41:48;;;;;;;;;;;2.70;99.90;;;;;;5056317;28;19929;-74
2021/12/09 00:44:15;;;;;;;;;;;2.70;99.90;;;;;;5050322;28;19939;-74
2021/12/09 00:46:43;;;;;;;;;;;2.70;99.90;;;;;;5057502;28;20367;-74
2021/12/09 00:49:09;;;;;;;;;;;2.70;99.90;;;;;;5050567;28;20382;-74
2021/12/09 00:51:37;;;;;;;;;;;2.70;99.90;;;;;;5046862;28;20023;-74
2021/12/09 00:54:04;;;;;;;;;;;2.70;99.90;;;;;;5060155;28;19929;-74
2021/12/09 00:56:30;;;;;;;;;;;2.70;99.90;;;;;;5052077;28;19925;-73
2021/12/09 00:58:57;;;;;;;;;;;2.70;99.90;;;;;;5058138;28;19931;-74
2021/12/09 01:01:24;;;;;;;;;;;2.70;99.90;;;;;;5049352;28;19947;-74
2021/12/09 01:03:53;;;;;;;;;;;2.70;99.90;;;;;;5049266;28;19931;-74
2021/12/09 01:06:19;;;;;;;;;;;2.70;99.90;;;;;;5050812;28;19924;-73
2021/12/09 01:08:46;;;;;;;;;;;2.70;99.90;;;;;;5041420;28;19932;-75
2021/12/09 01:11:14;;;;;;;;;;;2.60;99.90;;;;;;5063513;28;19946;-75
2021/12/09 01:13:41;;;;;;;;;;;2.60;99.90;;;;;;5065597;28;19978;-74
2021/12/09 01:16:08;;;;;;;;;;;2.60;99.90;;;;;;5057428;28;19928;-74
2021/12/09 01:18:36;;;;;;;;;;;2.60;99.90;;;;;;5063380;28;19955;-74
2021/12/09 01:21:04;;;;;;;;;;;2.60;99.90;;;;;;5054631;28;20027;-74
2021/12/09 01:23:31;;;;;;;;;;;2.60;99.90;;;;;;5064976;28;19925;-75
2021/12/09 01:26:02;;;;;;;;;;;2.70;99.90;;;;;;5053679;28;19925;-75
2021/12/09 01:28:32;;;;;;;;;;;2.60;99.90;;;;;;5062582;28;19932;-74
2021/12/09 01:31:02;;;;;;;;;;;2.70;99.90;;;;;;5069966;28;19924;-74
2021/12/09 01:33:29;;;;;;;;;;;2.60;99.90;;;;;;5057968;28;19924;-74
2021/12/09 01:35:56;;;;;;;;;;;2.60;99.90;;;;;;5059566;28;20318;-74
2021/12/09 01:38:27;;;;;;;;;;;2.60;99.90;;;;;;5070372;28;20547;-74
2021/12/09 01:40:55;;;;;;;;;;;2.60;99.90;;;;;;5054870;28;19931;-74
2021/12/09 01:43:21;;;;;;;;;;;2.60;99.90;;;;;;5063253;28;19925;-74
2021/12/09 01:45:48;;;;;;;;;;;2.60;99.90;;;;;;5051951;28;19925;-74
2021/12/09 01:48:16;;;;;;;;;;;2.60;99.90;;;;;;5063955;28;20011;-74
2021/12/09 01:50:42;;;;;;;;;;;2.60;99.90;;;;;;5052453;28;19932;-74
2021/12/09 01:53:10;;;;;;;;;;;2.70;99.90;;;;;;5057656;28;19925;-74
2021/12/09 01:55:38;;;;;;;;;;;2.70;99.90;;;;;;5054726;28;19929;-74
2021/12/09 01:58:04;;;;;;;;;;;2.70;99.90;;;;;;5052746;28;19925;-74
2021/12/09 02:00:37;;;;;;;;;;;2.60;99.90;;;;;;5053748;28;20299;-74
2021/12/09 02:03:04;;;;;;;;;;;2.70;99.90;;;;;;5063712;28;19924;-73
2021/12/09 02:05:31;;;;;;;;;;;2.60;99.90;;;;;;5055427;28;19976;-75
2021/12/09 02:07:57;;;;;;;;;;;2.60;99.90;;;;;;5049774;28;19948;-74
2021/12/09 02:10:24;;;;;;;;;;;2.70;99.90;;;;;;5055660;28;19931;-74
2021/12/09 02:12:53;;;;;;;;;;;2.60;99.90;;;;;;5065710;28;20383;-73
2021/12/09 02:15:22;;;;;;;;;;;2.60;99.90;;;;;;5061271;28;19963;-74
2021/12/09 02:17:48;;;;;;;;;;;2.60;99.90;;;;;;5058742;28;20407;-74
2021/12/09 02:20:16;;;;;;;;;;;2.60;99.90;;;;;;5062065;28;20015;-74
2021/12/09 02:22:47;;;;;;;;;;;2.60;99.90;;;;;;5073662;28;19925;-74
2021/12/09 02:25:14;;;;;;;;;;;2.60;99.90;;;;;;5053639;28;19925;-73
2021/12/09 02:27:41;;;;;;;;;;;2.60;99.90;;;;;;5053614;28;19925;-74
2021/12/09 02:30:08;;;;;;;;;;;2.70;99.90;;;;;;5051359;28;20011;-74
2021/12/09 02:32:34;;;;;;;;;;;2.70;99.90;;;;;;5059075;28;19924;-73
2021/12/09 02:35:01;;;;;;;;;;;2.70;99.90;;;;;;5062149;28;20307;-74
2021/12/09 02:37:28;;;;;;;;;;;2.70;99.90;;;;;;5049828;28;19932;-74
2021/12/09 02:39:56;;;;;;;;;;;2.70;99.90;;;;;;5052440;28;19925;-73
2021/12/09 02:42:24;;;;;;;;;;;2.70;99.90;;;;;;5051263;28;20315;-74
2021/12/09 02:44:51;;;;;;;;;;;2.70;99.90;;;;;;5052390;28;20406;-74
2021/12/09 02:47:18;;;;;;;;;;;2.70;99.90;;;;;;5048319;28;19924;-74
2021/12/09 02:49:44;;;;;;;;;;;2.70;99.90;;;;;;5055999;28;19925;-74
2021/12/09 02:52:11;;;;;;;;;;;2.70;99.90;;;;;;5052433;28;20024;-74
2021/12/09 02:54:38;;;;;;;;;;;2.60;99.90;;;;;;5052722;28;20385;-73
2021/12/09 02:57:07;;;;;;;;;;;2.60;99.90;;;;;;5051430;28;20407;-74
2021/12/09 02:59:34;;;;;;;;;;;2.60;99.90;;;;;;5052952;28;19924;-75
2021/12/09 03:02:04;;;;;;;;;;;2.60;99.90;;;;;;5055823;28;19931;-74
2021/12/09 03:04:37;;;;;;;;;;;2.60;99.90;;;;;;5052598;28;19925;-74
2021/12/09 03:07:04;;;;;;;;;;;2.50;99.90;;;;;;5042337;28;19937;-75
2021/12/09 03:09:31;;;;;;;;;;;2.50;99.90;;;;;;5052202;28;20012;-74
2021/12/09 03:12:04;;;;;;;;;;;2.50;99.90;;;;;;5049805;28;19931;-74
2021/12/09 03:14:32;;;;;;;;;;;2.50;99.90;;;;;;5051058;28;19925;-74
2021/12/09 03:16:59;;;;;;;;;;;2.40;99.90;;;;;;5049798;28;20023;-74
2021/12/09 03:19:26;;;;;;;;;;;2.40;99.90;;;;;;5050048;28;19925;-74
2021/12/09 03:21:52;;;;;;;;;;;2.40;99.90;;;;;;5055667;28;19925;-74
2021/12/09 03:24:20;;;;;;;;;;;2.30;99.90;;;;;;5052232;28;19931;-74
2021/12/09 03:26:47;;;;;;;;;;;2.40;99.90;;;;;;5052645;28;19932;-74
2021/12/09 03:29:16;;;;;;;;;;;2.40;99.90;;;;;;5052092;28;19924;-74
2021/12/09 03:31:45;;;;;;;;;;;2.30;99.90;;;;;;5061474;28;20522;-74
2021/12/09 03:34:13;;;;;;;;;;;2.30;99.90;;;;;;5052228;28;19947;-74
2021/12/09 03:36:40;;;;;;;;;;;2.30;99.90;;;;;;5062006;28;20020;-74
2021/12/09 03:39:09;;;;;;;;;;;2.30;99.90;;;;;;5056872;28;20007;-75
2021/12/09 03:41:37;;;;;;;;;;;2.40;99.90;;;;;;5055289;28;19925;-76
2021/12/09 03:44:06;;;;;;;;;;;2.30;99.90;;;;;;5052298;28;20376;-75
2021/12/09 03:46:33;;;;;;;;;;;2.30;99.90;;;;;;5050794;28;19925;-74
2021/12/09 03:49:01;;;;;;;;;;;2.30;99.90;;;;;;5053862;28;20371;-74
2021/12/09 03:51:27;;;;;;;;;;;2.30;99.90;;;;;;5047189;28;20361;-75
2021/12/09 03:53:54;;;;;;;;;;;2.40;99.90;;;;;;5050525;28;19925;-76
2021/12/09 03:56:21;;;;;;;;;;;2.40;99.90;;;;;;5065035;28;19932;-75
2021/12/09 03:58:48;;;;;;;;;;;2.40;99.90;;;;;;5046000;28;19925;-75
2021/12/09 04:01:23;;;;;;;;;;;2.40;99.90;;;;;;5052581;28;20371;-75
2021/12/09 04:03:50;;;;;;;;;;;2.40;99.90;;;;;;5052962;28;20012;-75
2021/12/09 04:06:18;;;;;;;;;;;2.40;99.90;;;;;;5056572;28;20380;-74
2021/12/09 04:08:45;;;;;;;;;;;2.40;99.90;;;;;;5055818;28;19931;-74
2021/12/09 04:11:11;;;;;;;;;;;2.40;99.90;;;;;;5052475;28;20007;-74
2021/12/09 04:13:38;;;;;;;;;;;2.30;99.90;;;;;;5056497;28;19972;-74
2021/12/09 04:16:07;;;;;;;;;;;2.30;99.90;;;;;;5044261;28;19932;-74
2021/12/09 04:18:34;;;;;;;;;;;2.30;99.90;;;;;;5062176;28;20380;-73
2021/12/09 04:21:01;;;;;;;;;;;2.30;99.90;;;;;;5035278;28;20288;-74
2021/12/09 04:23:30;;;;;;;;;;;2.30;99.90;;;;;;5049040;28;19925;-75
2021/12/09 04:25:56;;;;;;;;;;;2.20;99.90;;;;;;5047960;28;19925;-74
2021/12/09 04:28:23;;;;;;;;;;;2.20;99.90;;;;;;5053291;28;19925;-74
2021/12/09 04:30:50;;;;;;;;;;;2.20;99.90;;;;;;5071584;28;19979;-74
2021/12/09 04:33:17;;;;;;;;;;;2.20;99.90;;;;;;5060257;28;19928;-75
2021/12/09 04:35:44;;;;;;;;;;;2.30;99.90;;;;;;5059038;28;20329;-74
2021/12/09 04:38:11;;;;;;;;;;;2.30;99.90;;;;;;5055430;28;20322;-76
2021/12/09 04:40:39;;;;;;;;;;;2.30;99.90;;;;;;5061121;28;20004;-76
2021/12/09 04:43:06;;;;;;;;;;;2.40;99.90;;;;;;5061683;28;20019;-75
2021/12/09 04:45:34;;;;;;;;;;;2.40;99.90;;;;;;5065827;28;19968;-74
2021/12/09 04:48:01;;;;;;;;;;;2.40;99.90;;;;;;5056878;28;19939;-75
2021/12/09 04:50:28;;;;;;;;;;;2.40;99.90;;;;;;5062959;28;19924;-75
2021/12/09 04:52:54;;;;;;;;;;;2.40;99.90;;;;;;5055195;28;20008;-75
2021/12/09 04:55:21;;;;;;;;;;;2.40;99.90;;;;;;5052242;28;19936;-74
2021/12/09 04:57:49;;;;;;;;;;;2.40;99.90;;;;;;5059735;28;20451;-75
2021/12/09 05:00:18;;;;;;;;;;;2.40;99.90;;;;;;5052396;28;19936;-75
2021/12/09 05:03:01;;;;;;;;;;;2.40;99.90;;;;;;5055162;28;19947;-76
2021/12/09 05:05:28;;;;;;;;;;;2.40;99.90;;;;;;5042098;28;19929;-75
2021/12/09 05:07:54;;;;;;;;;;;2.40;99.90;;;;;;5054113;28;19925;-74
2021/12/09 05:10:21;;;;;;;;;;;2.30;99.90;;;;;;5055098;28;19925;-74
2021/12/09 05:12:48;;;;;;;;;;;2.30;99.90;;;;;;5053417;28;19968;-74
2021/12/09 05:15:16;;;;;;;;;;;2.30;99.90;;;;;;5056278;28;19932;-75
2021/12/09 05:17:42;;;;;;;;;;;2.30;99.90;;;;;;5059482;28;19925;-74
2021/12/09 05:20:09;;;;;;;;;;;2.20;99.90;;;;;;5052713;28;20431;-74
2021/12/09 05:22:36;;;;;;;;;;;2.30;99.90;;;;;;5061972;28;19936;-74
2021/12/09 05:25:03;;;;;;;;;;;2.30;99.90;;;;;;5064819;28;19959;-74
2021/12/09 05:27:30;;;;;;;;;;;2.30;99.90;;;;;;5046061;28;19963;-74
2021/12/09 05:30:06;;;;;;;;;;;2.30;99.90;;;;;;5052774;28;19931;-73
2021/12/09 05:32:33;;;;;;;;;;;2.30;99.90;;;;;;5058048;28;20019;-74
2021/12/09 05:35:00;;;;;;;;;;;2.20;99.90;;;;;;5064775;28;19950;-74
2021/12/09 05:37:27;;;;;;;;;;;2.20;99.90;;;;;;5051320;28;20438;-74
2021/12/09 05:39:56;;;;;;;;;;;2.20;99.90;;;;;;5055785;28;20295;-73
2021/12/09 05:42:23;;;;;;;;;;;2.30;99.90;;;;;;5055814;28;20303;-74
2021/12/09 05:44:50;;;;;;;;;;;2.40;99.90;;;;;;5062840;28;19931;-74
2021/12/09 05:47:17;;;;;;;;;;;2.40;99.90;;;;;;5056468;28;19924;-74
2021/12/09 05:49:46;;;;;;;;;;;2.50;99.90;;;;;;5054729;28;19929;-75
2021/12/09 05:52:13;;;;;;;;;;;2.50;99.90;;;;;;5053226;28;20083;-74
2021/12/09 05:54:41;;;;;;;;;;;2.60;99.90;;;;;;5054296;28;20283;-75
2021/12/09 05:57:08;;;;;;;;;;;2.70;99.90;;;;;;5059490;28;19925;-74
2021/12/09 05:59:34;;;;;;;;;;;2.70;99.90;;;;;;5059951;28;19928;-75
2021/12/09 06:02:01;;;;;;;;;;;2.70;99.90;;;;;;5055303;28;20332;-75
2021/12/09 06:04:28;;;;;;;;;;;2.80;99.90;;;;;;5051473;28;19954;-75
2021/12/09 06:06:56;;;;;;;;;;;2.90;99.90;;;;;;5053820;28;19928;-74
2021/12/09 06:09:24;;;;;;;;;;;2.90;99.90;;;;;;5053707;28;19925;-75
2021/12/09 06:11:51;;;;;;;;;;;3.00;99.90;;;;;;5053332;28;19960;-75
2021/12/09 06:14:17;;;;;;;;;;;3.00;99.90;;;;;;5052516;28;20012;-74
2021/12/09 06:16:45;;;;;;;;;;;3.10;99.90;;;;;;5053069;28;19932;-75
2021/12/09 06:19:11;;;;;;;;;;;3.10;99.90;;;;;;5052508;28;19932;-74
2021/12/09 06:21:38;;;;;;;;;;;3.00;99.90;;;;;;5065383;28;19928;-74
2021/12/09 06:24:06;;;;;;;;;;;3.00;99.90;;;;;;5052606;28;20302;-74
2021/12/09 06:26:33;;;;;;;;;;;3.00;99.90;;;;;;5056274;28;20421;-75
2021/12/09 06:29:00;;;;;;;;;;;3.00;99.90;;;;;;5042464;28;19931;-74
2021/12/09 06:31:27;;;;;;;;;;;3.00;99.90;;;;;;5055685;28;19972;-74
2021/12/09 06:33:54;;;;;;;;;;;3.00;99.90;;;;;;5066943;28;19925;-74
2021/12/09 06:36:21;;;;;;;;;;;3.00;99.90;;;;;;5053815;28;19947;-74
2021/12/09 06:38:48;;;;;;;;;;;2.90;99.90;;;;;;5069052;28;20007;-74
2021/12/09 06:41:16;;;;;;;;;;;2.90;99.90;;;;;;5053051;28;19925;-74
2021/12/09 06:43:43;;;;;;;;;;;2.80;99.90;;;;;;5054206;28;20379;-75
2021/12/09 06:46:10;;;;;;;;;;;2.80;99.90;;;;;;5068838;28;20391;-74
2021/12/09 06:48:37;;;;;;;;;;;2.70;99.90;;;;;;5050515;28;19939;-76
2021/12/09 06:51:05;;;;;;;;;;;2.70;99.90;;;;;;5052312;28;19931;-77
2021/12/09 06:53:32;;;;;;;;;;;2.70;99.90;;;;;;5051716;28;19932;-74
2021/12/09 06:55:59;;;;;;;;;;;2.70;99.90;;;;;;5053250;28;19924;-74
2021/12/09 06:58:27;;;;;;;;;;;2.70;99.90;;;;;;5053844;28;20351;-74
2021/12/09 07:00:55;;;;;;;;;;;2.70;99.90;;;;;;5044321;28;19925;-74
2021/12/09 07:03:22;;;;;;;;;;;2.70;99.90;;;;;;5044735;28;19933;-75
2021/12/09 07:05:49;;;;;;;;;;;2.70;99.90;;;;;;5054719;28;19993;-75
2021/12/09 07:08:16;;;;;;;;;;;2.80;99.90;;;;;;5054756;28;19925;-76
2021/12/09 07:10:43;;;;;;;;;;;2.80;99.90;;;;;;5047265;28;20473;-74
2021/12/09 07:13:10;;;;;;;;;;;2.90;99.90;;;;;;5056095;28;19925;-74
2021/12/09 07:15:38;;;;;;;;;;;2.90;99.90;;;;;;5061627;28;19960;-74
2021/12/09 07:18:04;;;;;;;;;;;2.90;99.90;;;;;;5052629;28;20023;-74
2021/12/09 07:20:32;;;;;;;;;;;2.90;99.90;;;;;;5056564;28;19932;-76
2021/12/09 07:22:59;;;;;;;;;;;2.90;99.90;;;;;;5057341;28;19928;-75
2021/12/09 07:25:26;;;;;;;;;;;3.00;99.90;;;;;;5051070;28;19925;-76
2021/12/09 07:27:53;;;;;;;;;;;3.00;99.90;;;;;;5053181;28;19931;-75
2021/12/09 07:30:21;;;;;;;;;;;3.10;99.90;;;;;;5058565;28;19939;-74
2021/12/09 07:32:50;;;;;;;;;;;3.20;99.90;;;;;;5049541;28;19971;-74
2021/12/09 07:35:17;;;;;;;;;;;3.20;99.90;;;;;;5059535;28;19925;-76
2021/12/09 07:37:44;;;;;;;;;;;3.30;99.90;;;;;;5048162;28;20031;-74
2021/12/09 07:40:12;;;;;;;;;;;3.30;99.90;;;;;;5045100;28;20023;-75
2021/12/09 07:42:39;;;;;;;;;;;3.30;99.90;;;;;;5048691;28;20051;-75
2021/12/09 07:45:06;;;;;;;;;;;3.30;99.90;;;;;;5058366;28;19930;-74
2021/12/09 07:47:33;;;;;;;;;;;3.40;99.90;;;;;;5059154;28;19924;-74
2021/12/09 07:50:01;;;;;;;;;;;3.40;99.90;;;;;;5052239;28;19924;-75
2021/12/09 07:52:28;;;;;;;;;;;3.40;99.90;;;;;;5052580;28;20462;-75
2021/12/09 07:54:54;;;;;;;;;;;3.50;99.90;;;;;;5052957;28;19929;-74
2021/12/09 07:57:21;;;;;;;;;;;3.40;99.90;;;;;;5057338;28;19925;-75
2021/12/09 07:59:48;;;;;;;;;;;3.50;99.90;;;;;;5056267;28;19924;-75
2021/12/09 08:02:15;;;;;;;;;;;3.50;99.90;;;;;;5051683;28;19924;-77
2021/12/09 08:04:42;;;;;;;;;;;3.50;99.90;;;;;;5052353;28;19958;-74
2021/12/09 08:07:11;;;;;;;;;;;3.50;99.90;;;;;;5049506;28;20003;-76
2021/12/09 08:09:38;;;;;;;;;;;3.50;99.90;;;;;;5052837;28;19924;-75
2021/12/09 08:12:05;;;;;;;;;;;3.60;99.90;;;;;;5054958;28;19987;-75
2021/12/09 08:14:32;;;;;;;;;;;3.50;99.90;;;;;;5049423;28;19936;-75
2021/12/09 08:17:11;;;;;;;;;;;3.60;99.90;;;;;;5057642;28;20420;-75
2021/12/09 08:19:38;;;;;;;;;;;3.60;99.90;;;;;;5051944;28;19929;-75
2021/12/09 08:22:05;;;;;;;;;;;3.50;99.90;;;;;;5050313;28;19925;-75
2021/12/09 08:24:33;;;;;;;;;;;3.50;99.90;;;;;;5049482;28;19932;-75
2021/12/09 08:26:59;;;;;;;;;;;3.50;99.90;;;;;;5051531;28;19932;-75
2021/12/09 08:29:26;;;;;;;;;;;3.50;99.90;;;;;;5055638;28;19931;-75
2021/12/09 08:31:53;;;;;;;;;;;3.60;99.90;;;;;;5049537;28;19964;-75
2021/12/09 08:34:19;;;;;;;;;;;3.60;99.90;;;;;;5066789;28;19931;-76
2021/12/09 08:36:46;;;;;;;;;;;3.50;99.90;;;;;;5048638;28;19924;-75
2021/12/09 08:39:13;;;;;;;;;;;3.50;99.90;;;;;;5050465;28;19943;-76
2021/12/09 08:41:41;;;;;;;;;;;3.50;99.90;;;;;;5051188;28;20048;-75
2021/12/09 08:44:08;;;;;;;;;;;3.50;99.90;;;;;;5061678;28;20299;-75
2021/12/09 08:46:35;;;;;;;;;;;3.50;99.90;;;;;;5049792;28;19925;-74
2021/12/09 08:49:01;;;;;;;;;;;3.60;99.90;;;;;;5047562;28;20311;-75
2021/12/09 08:51:29;;;;;;;;;;;3.50;99.90;;;;;;5051184;28;20364;-75
2021/12/09 08:53:58;;;;;;;;;;;3.60;99.90;;;;;;5052629;28;19925;-75
2021/12/09 08:56:24;;;;;;;;;;;3.60;99.90;;;;;;5052323;28;19924;-75
2021/12/09 08:58:53;;;;;;;;;;;3.70;99.90;;;;;;5058003;28;20310;-76
2021/12/09 09:01:19;;;;;;;;;;;3.70;99.90;;;;;;5047785;28;19951;-76
2021/12/09 09:03:46;;;;;;;;;;;3.70;99.90;;;;;;5049227;28;20011;-75
2021/12/09 09:06:13;;;;;;;;;;;3.70;99.90;;;;;;5042602;28;20457;-75
2021/12/09 09:08:39;;;;;;;;;;;3.70;99.90;;;;;;5065512;28;19931;-75
2021/12/09 09:11:06;;;;;;;;;;;3.80;99.90;;;;;;5059612;28;20446;-75
2021/12/09 09:13:33;;;;;;;;;;;3.90;99.90;;;;;;5045850;28;20012;-76
2021/12/09 09:16:01;;;;;;;;;;;3.90;99.90;;;;;;5056230;28;19925;-75
2021/12/09 09:18:27;;;;;;;;;;;4.00;99.90;;;;;;5047339;28;19932;-74
2021/12/09 09:20:54;;;;;;;;;;;4.00;99.90;;;;;;5053217;28;19943;-74
2021/12/09 09:23:22;;;;;;;;;;;4.00;99.90;;;;;;5046580;28;20019;-74
2021/12/09 09:25:49;;;;;;;;;;;4.00;99.90;;;;;;5048390;28;20339;-75
2021/12/09 09:28:16;;;;;;;;;;;4.00;99.90;;;;;;5052290;28;19931;-75
2021/12/09 09:30:48;;;;;;;;;;;3.90;99.90;;;;;;5063522;28;19931;-75
2021/12/09 09:33:17;;;;;;;;;;;4.00;99.90;;;;;;5057483;28;20350;-75
2021/12/09 09:35:44;;;;;;;;;;;4.00;99.90;;;;;;5058631;28;20439;-75
2021/12/09 09:38:11;;;;;;;;;;;4.10;99.90;;;;;;5056964;28;19932;-74
2021/12/09 09:40:41;;;;;;;;;;;4.10;99.90;;;;;;5054120;28;20019;-74
2021/12/09 09:43:26;;;;;;;;;;;4.10;99.90;;;;;;5051384;28;19931;-75
2021/12/09 09:45:52;;;;;;;;;;;4.10;99.90;;;;;;5063940;28;19929;-76
2021/12/09 09:48:21;;;;;;;;;;;4.10;99.90;;;;;;5051195;28;20419;-75
2021/12/09 09:50:49;;;;;;;;;;;4.20;99.90;;;;;;5057991;28;20015;-75
2021/12/09 09:53:16;;;;;;;;;;;4.20;99.90;;;;;;5057520;28;19932;-75
2021/12/09 09:55:46;;;;;;;;;;;4.20;99.90;;;;;;5054440;28;19931;-76
2021/12/09 09:58:13;;;;;;;;;;;4.20;99.90;;;;;;5050603;28;19925;-75
2021/12/09 10:00:40;;;;;;;;;;;4.40;99.90;;;;;;5059872;28;19976;-75
2021/12/09 10:03:10;;;;;;;;;;;4.40;99.90;;;;;;5057858;28;20004;-76
2021/12/09 10:05:43;;;;;;;;;;;4.40;99.90;;;;;;5062499;28;20015;-75
2021/12/09 10:08:09;;;;;;;;;;;4.40;99.90;;;;;;5062335;28;20433;-75
2021/12/09 10:10:38;;;;;;;;;;;4.40;99.90;;;;;;5053206;28;19925;-75
2021/12/09 10:13:06;;;;;;;;;;;4.30;99.90;;;;;;5066738;28;19960;-78
2021/12/09 10:15:36;;;;;;;;;;;4.30;99.90;;;;;;5059557;28;20290;-77
2021/12/09 10:18:04;;;;;;;;;;;4.30;99.90;;;;;;5049974;28;20272;-75
2021/12/09 10:20:52;;;;;;;;;;;4.50;99.90;;;;;;5060032;28;20007;-75
2021/12/09 10:23:23;;;;;;;;;;;4.70;99.90;;;;;;5051107;28;19932;-74
2021/12/09 10:26:09;;;;;;;;;;;4.70;99.90;;;;;;5052730;28;20023;-75
2021/12/09 10:28:36;;;;;;;;;;;4.60;99.90;;;;;;5058310;28;20028;-75
2021/12/09 10:31:10;;;;;;;;;;;4.60;99.90;;;;;;5054951;28;19925;-76
2021/12/09 10:33:58;;;;;;;;;;;4.60;99.90;;;;;;5053951;28;20023;-75
2021/12/09 10:36:43;;;;;;;;;;;4.50;99.90;;;;;;5052775;28;19943;-77
2021/12/09 10:39:18;;;;;;;;;;;4.50;99.90;;;;;;5051243;28;19948;-75
2021/12/09 10:41:45;;;;;;;;;;;4.60;99.90;;;;;;5054371;28;19924;-74
2021/12/09 10:44:12;;;;;;;;;;;4.60;99.90;;;;;;5056651;28;20027;-76
2021/12/09 10:46:48;;;;;;;;;;;4.60;99.90;;;;;;5052829;28;19989;-76
2021/12/09 10:49:17;;;;;;;;;;;4.80;99.90;;;;;;5048934;28;19929;-76
2021/12/09 10:51:55;;;;;;;;;;;4.90;99.90;;;;;;5060441;28;19932;-75
2021/12/09 10:54:31;;;;;;;;;;;4.90;99.90;;;;;;5052866;28;19982;-73
2021/12/09 10:56:58;;;;;;;;;;;4.90;99.90;;;;;;5061141;28;19932;-76
2021/12/09 10:59:29;;;;;;;;;;;5.00;99.90;;;;;;5058645;28;19924;-75
2021/12/09 11:02:05;;;;;;;;;;;4.90;99.90;;;;;;5051851;28;19931;-75
2021/12/09 11:04:32;;;;;;;;;;;4.90;99.90;;;;;;5057066;28;19924;-75
2021/12/09 11:06:58;;;;;;;;;;;4.80;99.90;;;;;;5055599;28;20306;-74
2021/12/09 11:09:25;;;;;;;;;;;4.90;99.90;;;;;;5050117;28;20451;-74
2021/12/09 11:11:56;;;;;;;;;;;4.80;99.90;;;;;;5048620;28;19983;-74
2021/12/09 11:14:27;;;;;;;;;;;4.80;99.90;;;;;;5055411;28;19987;-73
2021/12/09 11:17:02;;;;;;;;;;;4.90;99.90;;;;;;5051980;28;19992;-74
2021/12/09 11:19:36;;;;;;;;;;;4.90;99.90;;;;;;5051299;28;19925;-74
2021/12/09 11:22:04;;;;;;;;;;;5.00;99.90;;;;;;5052752;28;20477;-74
2021/12/09 11:24:34;;;;;;;;;;;5.10;99.90;;;;;;5055169;28;19932;-76
2021/12/09 11:27:04;;;;;;;;;;;5.20;99.90;;;;;;5056661;28;20431;-73
2021/12/09 11:29:34;;;;;;;;;;;5.20;99.90;;;;;;5056888;28;20007;-75
2021/12/09 11:32:07;;;;;;;;;;;5.30;99.90;;;;;;5045419;28;19924;-76
2021/12/09 11:34:38;;;;;;;;;;;5.30;99.90;;;;;;5050200;28;19931;-76
2021/12/09 11:37:10;;;;;;;;;;;5.40;99.90;;;;;;5055844;28;19959;-75
2021/12/09 11:39:38;;;;;;;;;;;5.40;99.90;;;;;;5058688;28;19932;-75
2021/12/09 11:42:24;;;;;;;;;;;5.50;99.90;;;;;;5056823;28;19947;-75
2021/12/09 11:44:51;;;;;;;;;;;5.50;99.90;;;;;;5053206;28;19933;-75
2021/12/09 11:47:18;;;;;;;;;;;5.50;99.90;;;;;;5050707;28;19979;-74
2021/12/09 11:49:46;;;;;;;;;;;5.50;99.90;;;;;;5048086;28;19931;-76
2021/12/09 11:52:14;;;;;;;;;;;5.50;99.90;;;;;;5051951;28;19924;-75
2021/12/09 11:54:48;;;;;;;;;;;5.50;99.90;;;;;;5056355;28;19925;-75
2021/12/09 11:57:30;;;;;;;;;;;5.50;99.90;;;;;;5051019;28;19925;-75
2021/12/09 12:11:35;;;;;;;;;;;5.60;99.90;;;;;;5055340;28;19934;-78
2021/12/09 12:14:15;;;;;;;;;;;5.70;99.90;;;;;;5049450;28;20147;-77
2021/12/09 12:17:03;;;;;;;;;;;5.80;99.90;;;;;;5047946;28;19972;-75
2021/12/09 12:19:49;;;;;;;;;;;5.80;99.90;;;;;;5054580;28;19925;-76
2021/12/09 12:22:44;;;;;;;;;;;5.80;99.90;;;;;;5046072;28;20450;-77
2021/12/09 12:25:56;;;;;;;;;;;5.70;99.90;;;;;;5059392;28;20500;-76
2021/12/09 12:28:31;;;;;;;;;;;5.60;99.90;;;;;;5046019;28;19932;-75
2021/12/09 12:31:22;;;;;;;;;;;5.60;99.90;;;;;;5048331;28;19924;-78
2021/12/09 12:33:58;;;;;;;;;;;5.70;99.90;;;;;;5048674;28;19925;-75
2021/12/09 12:37:03;;;;;;;;;;;5.70;99.90;;;;;;5050061;28;20334;-77
2021/12/09 12:39:35;;;;;;;;;;;5.80;99.90;;;;;;5039037;28;19940;-75
2021/12/09 12:42:08;;;;;;;;;;;5.80;99.90;;;;;;5041057;28;19933;-75
2021/12/09 12:44:36;;;;;;;;;;;5.80;99.90;;;;;;5047731;28;20376;-73
2021/12/09 12:47:13;;;;;;;;;;;5.80;99.90;;;;;;5035929;28;19970;-74
2021/12/09 12:49:46;;;;;;;;;;;5.80;99.90;;;;;;5049439;28;19925;-78
2021/12/09 12:52:25;;;;;;;;;;;5.90;99.90;;;;;;5052635;28;19935;-78
2021/12/09 12:54:54;;;;;;;;;;;5.90;99.90;;;;;;5053093;28;19933;-75
2021/12/09 12:57:28;;;;;;;;;;;5.90;99.90;;;;;;5046201;28;21787;-76
2021/12/09 13:00:06;;;;;;;;;;;6.00;99.90;;;;;;5049754;28;20015;-77
2021/12/09 13:05:43;;;;;;;;;;;6.10;99.90;;;;;;5053324;28;19928;-76
2021/12/09 13:08:29;;;;;;;;;;;6.10;99.90;;;;;;5053951;28;19925;-77
2021/12/09 13:14:02;;;;;;;;;;;6.00;99.90;;;;;;5044934;28;19932;-75
2021/12/09 13:16:41;;;;;;;;;;;6.10;99.90;;;;;;5041489;28;19931;-77
2021/12/09 13:19:31;;;;;;;;;;;6.20;99.90;;;;;;5052369;28;19925;-76
2021/12/09 13:22:00;;;;;;;;;;;6.20;99.90;;;;;;5069651;28;19931;-78
2021/12/09 13:24:34;;;;;;;;;;;6.20;99.90;;;;;;5056569;28;19933;-76
2021/12/09 13:27:12;;;;;;;;;;;6.20;99.90;;;;;;5052519;28;20431;-74
2021/12/09 13:29:48;;;;;;;;;;;6.10;99.90;;;;;;5051998;28;19924;-77
2021/12/09 13:32:41;;;;;;;;;;;5.90;99.90;;;;;;5062257;28;19928;-76
2021/12/09 13:35:14;;;;;;;;;;;5.80;99.90;;;;;;5061327;28;19928;-78
2021/12/09 13:38:05;;;;;;;;;;;5.60;99.90;;;;;;5058018;28;19925;-77
2021/12/09 13:45:47;;;;;;;;;;;5.60;99.90;;;;;;5043723;28;20383;-76
2021/12/09 13:46:21;;;;;;;;;;;5.50;99.90;;;;;;5058699;28;20418;-73
2021/12/09 13:48:57;;;;;;;;;;;5.50;99.90;;;;;;5049687;28;22652;-72
2021/12/09 13:51:51;;;;;;;;;;;5.60;99.90;;;;;;5058305;28;19924;-73
2021/12/09 13:54:24;;;;;;;;;;;5.60;99.90;;;;;;5048476;28;19933;-76
2021/12/09 13:56:54;;;;;;;;;;;5.70;99.90;;;;;;5044461;28;19933;-74
2021/12/09 13:59:22;;;;;;;;;;;5.70;99.90;;;;;;5043877;28;19931;-74
2021/12/09 14:01:50;;;;;;;;;;;5.70;99.90;;;;;;5050046;28;20371;-74
2021/12/09 14:04:20;;;;;;;;;;;5.60;99.90;;;;;;5046127;28;19925;-74
2021/12/09 14:06:56;;;;;;;;;;;5.70;99.90;;;;;;5047723;28;20012;-75
2021/12/09 14:09:23;;;;;;;;;;;5.70;99.90;;;;;;5052934;28;19929;-77
2021/12/09 14:11:50;;;;;;;;;;;5.70;99.90;;;;;;5053280;28;19979;-76
2021/12/09 14:14:20;;;;;;;;;;;5.70;99.90;;;;;;5053015;28;20058;-76
2021/12/09 14:16:52;;;;;;;;;;;5.70;99.90;;;;;;5047382;28;19929;-74
2021/12/09 14:22:10;;;;;;;;;;;5.70;99.90;;;;;;5050892;28;20299;-75
2021/12/09 14:24:40;;;;;;;;;;;5.80;99.90;;;;;;5045660;28;19928;-80
2021/12/09 14:27:11;;;;;;;;;;;5.80;99.90;;;;;;5045973;28;19948;-75
2021/12/09 14:29:38;;;;;;;;;;;5.90;99.90;;;;;;5044058;28;19924;-77
2021/12/09 14:32:05;;;;;;;;;;;5.80;99.90;;;;;;5045306;28;20028;-76
2021/12/09 14:34:39;;;;;;;;;;;5.80;99.90;;;;;;5049160;28;20055;-72
2021/12/09 14:37:06;;;;;;;;;;;5.80;99.90;;;;;;5054635;28;19924;-77
2021/12/09 14:39:34;;;;;;;;;;;5.80;99.90;;;;;;5037349;28;19951;-77
2021/12/09 14:42:06;;;;;;;;;;;5.80;99.90;;;;;;5039034;28;19925;-75
2021/12/09 14:44:33;;;;;;;;;;;5.90;99.90;;;;;;5040211;28;20008;-75
2021/12/09 14:47:05;;;;;;;;;;;5.80;99.90;;;;;;5045869;28;20386;-76
2021/12/09 14:49:32;;;;;;;;;;;5.80;99.90;;;;;;5048733;28;19986;-77
2021/12/09 14:52:01;;;;;;;;;;;5.80;99.90;;;;;;5050402;28;20015;-76
2021/12/09 14:54:27;;;;;;;;;;;5.80;99.90;;;;;;5051605;28;20017;-76
2021/12/09 14:57:04;;;;;;;;;;;5.70;99.90;;;;;;5057559;28;19932;-74
2021/12/09 14:59:33;;;;;;;;;;;5.80;99.90;;;;;;5048509;28;19978;-76
2021/12/09 15:02:06;;;;;;;;;;;5.70;99.90;;;;;;5048633;28;20006;-74
2021/12/09 15:04:37;;;;;;;;;;;5.70;99.90;;;;;;5048772;28;19925;-75
2021/12/09 15:07:05;;;;;;;;;;;5.60;99.90;;;;;;5043200;28;19924;-75
2021/12/09 15:09:32;;;;;;;;;;;5.50;99.90;;;;;;5048603;28;20316;-78